createdAt,value
2022-09-07T00:01:05.671Z,1.95
2022-09-07T00:03:32.544Z,1.90
2022-09-07T00:05:59.349Z,1.55
2022-09-07T00:08:29.882Z,1.63
2022-09-07T00:10:59.967Z,1.50
2022-09-07T00:13:30.380Z,2.05
2022-09-07T00:15:57.680Z,1.50
2022-09-07T00:18:24.445Z,1.55
2022-09-07T00:21:02.505Z,1.63
2022-09-07T00:23:30.504Z,1.48
2022-09-07T00:26:06.251Z,1.58
2022-09-07T00:28:33.679Z,1.55
2022-09-07T00:31:00.399Z,1.80
2022-09-07T00:33:27.720Z,1.60
2022-09-07T00:35:54.725Z,1.67
2022-09-07T00:38:21.621Z,1.70
2022-09-07T00:40:48.394Z,2.03
2022-09-07T00:43:33.849Z,1.85
2022-09-07T00:46:02.112Z,1.80
2022-09-07T00:48:52.175Z,1.77
2022-09-07T00:51:29.655Z,2.15
2022-09-07T00:54:00.744Z,2.58
2022-09-07T00:56:32.489Z,2.08
2022-09-07T00:58:59.456Z,2.42
2022-09-07T01:01:27.329Z,2.28
2022-09-07T01:03:57.132Z,2.60
2022-09-07T01:06:28.717Z,2.38
2022-09-07T01:08:57.169Z,2.22
2022-09-07T01:11:23.875Z,2.10
2022-09-07T01:13:52.286Z,2.63
2022-09-07T01:16:31.692Z,2.20
2022-09-07T01:19:37.317Z,1.80
2022-09-07T01:22:39.487Z,2.33
2022-09-07T01:25:10.633Z,2.38
2022-09-07T01:27:58.346Z,2.00
2022-09-07T01:30:25.919Z,1.95
2022-09-07T01:33:33.414Z,1.88
2022-09-07T01:36:05.780Z,1.70
2022-09-07T01:38:38.609Z,1.52
2022-09-07T01:41:08.859Z,1.58
2022-09-07T01:43:53.858Z,1.52
2022-09-07T01:46:28.942Z,1.48
2022-09-07T01:49:02.407Z,1.50
2022-09-07T01:51:34.328Z,1.58
2022-09-07T01:54:18.636Z,1.50
2022-09-07T01:56:48.644Z,1.50
2022-09-07T01:59:29.631Z,1.20
2022-09-07T02:02:03.845Z,1.10
2022-09-07T02:04:45.651Z,1.30
2022-09-07T02:07:15.115Z,1.13
2022-09-07T02:10:06.497Z,1.50
2022-09-07T02:13:01.988Z,1.15
2022-09-07T02:15:58.233Z,1.20
2022-09-07T02:18:28.264Z,1.33
2022-09-07T02:20:57.953Z,1.50
2022-09-07T02:23:40.792Z,1.30
2022-09-07T02:26:14.011Z,1.40
2022-09-07T02:28:41.465Z,1.70
2022-09-07T02:31:08.397Z,1.50
2022-09-07T02:33:35.364Z,1.38
2022-09-07T02:36:04.473Z,1.60
2022-09-07T02:38:32.231Z,1.63
2022-09-07T02:41:01.479Z,1.75
2022-09-07T02:43:29.525Z,1.65
2022-09-07T02:46:11.218Z,1.80
2022-09-07T02:49:12.596Z,1.58
2022-09-07T02:52:06.639Z,1.50
2022-09-07T02:55:05.327Z,1.60
2022-09-07T02:57:48.702Z,1.73
2022-09-07T03:00:19.284Z,1.50
2022-09-07T03:02:51.960Z,1.67
2022-09-07T03:05:33.445Z,2.00
2022-09-07T03:08:12.116Z,1.75
2022-09-07T03:10:40.312Z,1.65
2022-09-07T03:13:06.957Z,1.50
2022-09-07T03:15:33.892Z,1.50
2022-09-07T03:18:00.635Z,2.00
2022-09-07T03:20:27.399Z,1.92
2022-09-07T03:22:54.049Z,1.77
2022-09-07T03:25:21.953Z,1.65
2022-09-07T03:27:48.669Z,1.70
2022-09-07T03:30:15.383Z,1.98
2022-09-07T03:32:42.085Z,1.55
2022-09-07T03:35:09.759Z,1.70
2022-09-07T03:37:37.848Z,2.08
2022-09-07T03:40:09.753Z,1.55
2022-09-07T03:42:37.223Z,1.60
2022-09-07T03:45:04.798Z,1.65
2022-09-07T03:47:33.327Z,1.88
2022-09-07T03:50:00.128Z,1.83
2022-09-07T03:52:26.776Z,1.60
2022-09-07T03:54:53.460Z,1.45
2022-09-07T03:57:20.322Z,1.90
2022-09-07T03:59:47.996Z,1.70
2022-09-07T04:02:14.775Z,1.77
2022-09-07T04:04:43.326Z,1.58
2022-09-07T04:07:10.196Z,2.05
2022-09-07T04:09:37.102Z,1.80
2022-09-07T04:12:04.078Z,1.95
2022-09-07T04:14:30.821Z,1.70
2022-09-07T04:16:57.567Z,1.90
2022-09-07T04:19:24.499Z,1.83
2022-09-07T04:21:51.352Z,1.92
2022-09-07T04:24:18.679Z,2.50
2022-09-07T04:26:45.711Z,1.80
2022-09-07T04:29:13.312Z,2.40
2022-09-07T04:31:40.146Z,2.08
2022-09-07T04:34:07.060Z,2.20
2022-09-07T04:36:34.909Z,1.90
2022-09-07T04:39:04.262Z,2.00
2022-09-07T04:41:32.488Z,1.75
2022-09-07T04:44:01.369Z,1.80
2022-09-07T04:46:33.590Z,2.20
2022-09-07T04:49:06.135Z,2.10
2022-09-07T04:51:33.966Z,2.03
2022-09-07T04:54:02.318Z,2.20
2022-09-07T04:56:29.502Z,2.13
2022-09-07T04:58:56.909Z,2.10
2022-09-07T05:01:25.063Z,2.15
2022-09-07T05:03:52.337Z,2.40
2022-09-07T05:06:20.617Z,2.83
2022-09-07T05:08:52.719Z,2.25
2022-09-07T05:11:24.938Z,2.33
2022-09-07T05:13:56.583Z,2.60
2022-09-07T05:16:24.349Z,2.35
2022-09-07T05:18:52.577Z,2.38
2022-09-07T05:21:22.405Z,2.47
2022-09-07T05:23:51.374Z,2.20
2022-09-07T05:26:19.489Z,2.55
2022-09-07T05:28:46.983Z,2.58
2022-09-07T05:31:20.341Z,2.65
2022-09-07T05:36:35.591Z,2.60
2022-09-07T05:39:02.311Z,2.80
2022-09-07T05:41:29.011Z,2.92
2022-09-07T05:46:42.575Z,2.70
2022-09-07T05:49:10.051Z,2.75
2022-09-07T05:51:39.940Z,2.60
2022-09-07T05:54:06.689Z,3.13
2022-09-07T05:56:36.586Z,2.97
2022-09-07T05:59:03.891Z,2.85
2022-09-07T06:01:31.784Z,2.60
2022-09-07T06:03:58.762Z,2.60
2022-09-07T06:06:25.496Z,2.60
2022-09-07T06:08:53.860Z,2.92
2022-09-07T06:11:26.211Z,2.60
2022-09-07T06:13:53.111Z,2.70
2022-09-07T06:16:20.547Z,3.42
2022-09-07T06:18:49.399Z,2.70
2022-09-07T06:21:19.065Z,2.83
2022-09-07T06:23:46.776Z,2.90
2022-09-07T06:26:14.937Z,3.17
2022-09-07T06:28:46.737Z,2.50
2022-09-07T06:31:18.320Z,3.63
2022-09-07T06:33:47.615Z,3.30
2022-09-07T06:36:17.098Z,3.97
2022-09-07T06:38:44.350Z,3.25
2022-09-07T06:44:09.518Z,4.00
2022-09-07T06:49:23.751Z,4.28
2022-09-07T06:51:50.761Z,4.78
2022-09-07T06:57:09.235Z,4.72
2022-09-07T06:59:37.178Z,4.93
2022-09-07T07:02:05.771Z,5.50
2022-09-07T07:04:37.760Z,5.65
2022-09-07T07:07:09.165Z,6.10
2022-09-07T07:09:35.862Z,5.20
2022-09-07T07:12:02.664Z,5.68
2022-09-07T07:14:34.399Z,5.10
2022-09-07T07:17:03.079Z,5.55
2022-09-07T07:19:29.891Z,5.20
2022-09-07T07:24:43.264Z,5.93
2022-09-07T07:27:09.898Z,5.32
2022-09-07T07:29:36.579Z,5.88
2022-09-07T07:32:04.413Z,5.57
2022-09-07T07:34:31.207Z,6.13
2022-09-07T07:36:57.875Z,5.68
2022-09-07T07:42:12.312Z,6.68
2022-09-07T07:44:39.175Z,6.68
2022-09-07T07:47:06.637Z,5.95
2022-09-07T07:49:33.220Z,5.95
2022-09-07T07:54:46.699Z,7.20
2022-09-07T07:57:13.720Z,6.82
2022-09-07T07:59:40.470Z,7.13
2022-09-07T08:02:10.028Z,8.25
2022-09-07T08:04:36.832Z,9.68
2022-09-07T08:07:09.724Z,9.73
2022-09-07T08:09:43.000Z,10.20
2022-09-07T08:12:12.215Z,11.20
2022-09-07T08:14:43.017Z,11.23
2022-09-07T08:17:11.739Z,12.07
2022-09-07T08:19:38.931Z,12.38
2022-09-07T08:22:06.112Z,12.73
2022-09-07T08:24:33.513Z,12.52
2022-09-07T08:27:00.180Z,12.50
2022-09-07T08:29:27.317Z,12.10
2022-09-07T08:31:54.283Z,12.00
2022-09-07T08:34:21.853Z,12.73
2022-09-07T08:36:48.589Z,11.82
2022-09-07T08:39:15.458Z,11.50
2022-09-07T08:41:45.122Z,10.98
2022-09-07T08:44:33.373Z,10.32
2022-09-07T08:47:09.425Z,11.43
2022-09-07T08:49:42.109Z,11.48
2022-09-07T08:52:18.290Z,11.27
2022-09-07T08:55:00.627Z,11.30
2022-09-07T08:57:30.961Z,10.80
2022-09-07T09:00:11.714Z,9.88
2022-09-07T09:02:44.045Z,11.13
2022-09-07T09:05:27.851Z,11.25
2022-09-07T09:08:10.651Z,10.23
2022-09-07T09:11:03.574Z,9.82
2022-09-07T09:14:03.472Z,10.65
2022-09-07T09:16:50.794Z,10.23
2022-09-07T09:19:55.659Z,12.30
2022-09-07T09:22:26.492Z,10.20
2022-09-07T09:25:13.417Z,9.38
2022-09-07T09:27:40.407Z,10.55
2022-09-07T09:30:22.465Z,9.63
2022-09-07T09:32:52.855Z,8.65
2022-09-07T09:35:35.147Z,10.10
2022-09-07T09:38:04.955Z,8.75
2022-09-07T09:40:35.967Z,9.10
2022-09-07T09:43:02.724Z,8.60
2022-09-07T09:48:34.133Z,8.43
2022-09-07T09:54:06.050Z,8.55
2022-09-07T09:56:51.114Z,9.15
2022-09-07T10:05:33.111Z,8.07
2022-09-07T10:08:00.027Z,7.10
2022-09-07T10:10:28.607Z,4.18
2022-09-07T10:12:56.195Z,6.78
2022-09-07T10:15:33.675Z,7.38
2022-09-07T10:18:06.279Z,6.85
2022-09-07T10:20:37.393Z,6.72
2022-09-07T10:23:05.663Z,6.43
2022-09-07T10:25:40.253Z,6.72
2022-09-07T10:28:10.063Z,5.10
2022-09-07T10:31:08.931Z,5.10
2022-09-07T10:36:59.199Z,4.88
2022-09-07T10:39:34.353Z,4.80
2022-09-07T10:42:29.575Z,4.40
2022-09-07T10:45:09.153Z,4.18
2022-09-07T10:48:04.908Z,3.90
2022-09-07T10:50:40.678Z,3.17
2022-09-07T10:53:40.037Z,3.33
2022-09-07T10:56:32.072Z,3.20
2022-09-07T10:59:07.681Z,3.30
2022-09-07T11:01:40.369Z,3.28
2022-09-07T11:04:30.161Z,2.35
2022-09-07T11:07:08.722Z,2.60
2022-09-07T11:09:56.719Z,3.50
2022-09-07T11:12:32.852Z,2.63
2022-09-07T11:15:19.410Z,3.10
2022-09-07T11:18:01.044Z,3.58
2022-09-07T11:20:44.626Z,3.40
2022-09-07T11:23:43.396Z,2.17
2022-09-07T11:26:20.043Z,2.33
2022-09-07T11:32:15.671Z,2.25
2022-09-07T11:34:47.559Z,1.95
2022-09-07T11:37:23.188Z,2.40
2022-09-07T11:40:03.663Z,2.75
2022-09-07T11:42:49.617Z,2.58
2022-09-07T11:45:25.662Z,2.40
2022-09-07T11:48:22.265Z,2.50
2022-09-07T11:50:58.033Z,2.45
2022-09-07T11:53:28.754Z,2.30
2022-09-07T11:56:01.051Z,3.00
2022-09-07T11:58:41.678Z,2.60
2022-09-07T12:01:20.758Z,3.20
2022-09-07T12:04:24.908Z,2.88
2022-09-07T12:07:18.944Z,2.65
2022-09-07T12:09:51.634Z,2.10
2022-09-07T12:12:21.484Z,2.55
2022-09-07T12:15:21.262Z,2.40
2022-09-07T12:18:11.292Z,2.92
2022-09-07T12:20:43.957Z,2.72
2022-09-07T12:23:16.617Z,2.28
2022-09-07T12:25:48.237Z,1.83
2022-09-07T12:28:24.284Z,1.92
2022-09-07T12:31:00.751Z,1.67
2022-09-07T12:33:46.159Z,2.33
2022-09-07T12:36:28.218Z,2.00
2022-09-07T12:39:28.515Z,1.60
2022-09-07T12:45:28.552Z,1.77
2022-09-07T12:47:58.300Z,1.75
2022-09-07T12:50:35.921Z,1.77
2022-09-07T12:53:28.642Z,1.90
2022-09-07T12:56:29.348Z,1.90
2022-09-07T12:59:30.371Z,2.10
2022-09-07T13:02:30.776Z,1.83
2022-09-07T13:05:06.363Z,1.60
2022-09-07T13:08:10.979Z,1.23
2022-09-07T13:10:40.909Z,1.55
2022-09-07T13:14:10.941Z,1.40
2022-09-07T13:16:26.254Z,2.00
2022-09-07T13:18:52.924Z,1.52
2022-09-07T13:21:39.964Z,1.40
2022-09-07T13:27:11.327Z,1.25
2022-09-07T13:29:51.959Z,0.95
2022-09-07T13:35:25.270Z,0.90
2022-09-07T13:38:01.102Z,0.98
2022-09-07T13:40:33.244Z,1.20
2022-09-07T13:43:00.770Z,1.20
2022-09-07T13:45:50.777Z,0.73
2022-09-07T13:48:33.121Z,1.02
2022-09-07T13:51:28.554Z,0.90
2022-09-07T13:54:26.968Z,1.00
2022-09-07T13:57:13.220Z,1.17
2022-09-07T13:59:42.621Z,1.15
2022-09-07T14:02:36.070Z,0.80
2022-09-07T14:05:03.251Z,0.90
2022-09-07T14:07:31.013Z,0.90
2022-09-07T14:10:14.332Z,1.10
2022-09-07T14:12:50.976Z,0.90
2022-09-07T14:15:18.976Z,1.10
2022-09-07T14:17:46.952Z,1.27
2022-09-07T14:20:15.589Z,1.42
2022-09-07T14:22:42.882Z,1.20
2022-09-07T14:25:19.411Z,1.08
2022-09-07T14:27:47.550Z,0.93
2022-09-07T14:30:17.295Z,1.30
2022-09-07T14:32:44.689Z,1.15
2022-09-07T14:35:17.724Z,1.10
2022-09-07T14:37:46.210Z,1.17
2022-09-07T14:40:20.841Z,1.08
2022-09-07T14:42:52.228Z,1.20
2022-09-07T14:45:26.443Z,1.65
2022-09-07T14:47:54.780Z,1.10
2022-09-07T14:50:27.607Z,1.20
2022-09-07T14:55:45.504Z,1.10
2022-09-07T14:58:15.113Z,1.20
2022-09-07T15:01:36.720Z,1.25
2022-09-07T15:03:35.741Z,1.10
2022-09-07T15:06:03.468Z,1.30
2022-09-07T15:08:45.467Z,1.00
2022-09-07T15:11:33.255Z,1.13
2022-09-07T15:14:03.127Z,1.38
2022-09-07T15:16:36.630Z,0.75
2022-09-07T15:19:26.707Z,1.35
2022-09-07T15:21:54.057Z,0.90
2022-09-07T15:24:20.860Z,1.10
2022-09-07T15:27:04.486Z,1.17
2022-09-07T15:29:32.146Z,1.17
2022-09-07T15:32:04.038Z,0.98
2022-09-07T15:34:32.151Z,1.20
2022-09-07T15:37:00.209Z,1.10
2022-09-07T15:39:29.791Z,1.30
2022-09-07T15:41:58.201Z,1.20
2022-09-07T15:44:28.496Z,0.90
2022-09-07T15:49:49.232Z,1.10
2022-09-07T15:52:16.913Z,1.00
2022-09-07T15:54:43.765Z,1.30
2022-09-07T15:59:57.512Z,1.02
2022-09-07T16:05:11.203Z,1.17
2022-09-07T16:10:26.019Z,0.90
2022-09-07T16:13:01.941Z,1.23
2022-09-07T16:15:30.626Z,1.13
2022-09-07T16:17:57.650Z,1.13
2022-09-07T16:20:24.316Z,0.85
2022-09-07T16:25:39.301Z,1.00
2022-09-07T16:28:06.258Z,1.20
2022-09-07T16:30:33.499Z,1.30
2022-09-07T16:33:00.256Z,1.40
2022-09-07T16:35:26.971Z,1.00
2022-09-07T16:40:43.537Z,1.20
2022-09-07T16:43:10.180Z,1.00
2022-09-07T16:48:23.598Z,1.10
2022-09-07T16:51:00.453Z,1.13
2022-09-07T16:53:30.457Z,1.00
2022-09-07T16:56:05.097Z,0.98
2022-09-07T16:58:37.503Z,1.45
2022-09-07T17:01:05.842Z,1.00
2022-09-07T17:03:32.593Z,1.02
2022-09-07T17:06:03.600Z,1.30
2022-09-07T17:08:30.286Z,0.90
2022-09-07T17:11:01.714Z,1.13
2022-09-07T17:13:30.217Z,0.98
2022-09-07T17:16:03.291Z,0.85
2022-09-07T17:21:17.863Z,0.90
2022-09-07T17:23:53.935Z,1.25
2022-09-07T17:26:22.503Z,1.50
2022-09-07T17:28:51.386Z,1.20
2022-09-07T17:34:11.695Z,1.00
2022-09-07T17:36:38.344Z,1.23
2022-09-07T17:39:20.480Z,1.42
2022-09-07T17:41:48.528Z,1.30
2022-09-07T17:44:15.649Z,1.40
2022-09-07T17:46:42.562Z,1.30
2022-09-07T17:49:12.355Z,1.17
2022-09-07T17:51:39.586Z,1.00
2022-09-07T17:54:11.351Z,1.20
2022-09-07T17:56:39.526Z,1.23
2022-09-07T18:01:54.236Z,1.30
2022-09-07T18:04:21.486Z,1.27
2022-09-07T18:06:48.433Z,1.30
2022-09-07T18:09:15.224Z,1.10
2022-09-07T18:11:45.917Z,1.05
2022-09-07T18:14:14.547Z,1.30
2022-09-07T18:16:42.517Z,1.02
2022-09-07T18:19:10.970Z,1.33
2022-09-07T18:21:39.339Z,1.30
2022-09-07T18:24:17.116Z,1.17
2022-09-07T18:26:50.094Z,1.50
2022-09-07T18:29:34.025Z,1.55
2022-09-07T18:32:07.376Z,0.90
2022-09-07T18:34:35.017Z,1.30
2022-09-07T18:37:02.362Z,1.20
2022-09-07T18:39:29.470Z,1.33
2022-09-07T18:41:56.266Z,1.23
2022-09-07T18:47:21.128Z,1.30
2022-09-07T18:49:49.135Z,1.10
2022-09-07T18:55:02.874Z,1.40
2022-09-07T18:57:29.502Z,1.25
2022-09-07T18:59:56.071Z,1.35
2022-09-07T19:02:22.738Z,1.10
2022-09-07T19:07:36.134Z,1.30
2022-09-07T19:10:06.250Z,1.20
2022-09-07T19:12:32.882Z,1.45
2022-09-07T19:14:59.472Z,1.30
2022-09-07T19:17:26.598Z,1.42
2022-09-07T19:19:53.206Z,0.82
2022-09-07T19:22:19.814Z,1.05
2022-09-07T19:24:46.871Z,1.20
2022-09-07T19:27:13.545Z,1.00
2022-09-07T19:29:40.244Z,1.10
2022-09-07T19:32:07.837Z,1.30
2022-09-07T19:34:36.907Z,1.15
2022-09-07T19:37:05.523Z,1.38
2022-09-07T19:39:32.527Z,1.27
2022-09-07T19:41:59.629Z,1.40
2022-09-07T19:44:26.379Z,1.27
2022-09-07T19:46:53.200Z,1.15
2022-09-07T19:49:20.077Z,1.45
2022-09-07T19:51:49.331Z,1.30
2022-09-07T19:54:16.033Z,1.35
2022-09-07T19:56:44.646Z,1.52
2022-09-07T19:59:11.733Z,1.17
2022-09-07T20:01:40.012Z,1.40
2022-09-07T20:04:10.515Z,1.20
2022-09-07T20:06:39.424Z,1.10
2022-09-07T20:09:08.145Z,1.35
2022-09-07T20:11:35.805Z,1.13
2022-09-07T20:14:02.978Z,1.20
2022-09-07T20:16:31.112Z,1.50
2022-09-07T20:18:58.731Z,1.58
2022-09-07T20:21:26.210Z,1.20
2022-09-07T20:23:52.854Z,1.27
2022-09-07T20:26:21.254Z,1.50
2022-09-07T20:29:11.013Z,1.25
2022-09-07T20:34:10.762Z,1.08
2022-09-07T20:36:37.554Z,1.35
2022-09-07T20:39:04.794Z,1.40
2022-09-07T20:41:33.858Z,1.20
2022-09-07T20:44:02.250Z,1.40
2022-09-07T20:46:30.555Z,1.40
2022-09-07T20:48:57.816Z,1.20
2022-09-07T20:51:24.575Z,1.17
2022-09-07T20:53:51.831Z,1.30
2022-09-07T20:56:21.113Z,1.45
2022-09-07T20:58:48.961Z,1.42
2022-09-07T21:01:17.926Z,1.50
2022-09-07T21:03:49.644Z,1.23
2022-09-07T21:06:17.254Z,1.15
2022-09-07T21:08:45.360Z,1.02
2022-09-07T21:11:18.073Z,1.50
2022-09-07T21:13:45.034Z,1.38
2022-09-07T21:16:13.663Z,1.50
2022-09-07T21:18:41.579Z,1.30
2022-09-07T21:21:23.414Z,1.42
2022-09-07T21:23:59.631Z,1.30
2022-09-07T21:26:27.957Z,1.25
2022-09-07T21:29:03.848Z,1.40
2022-09-07T21:31:31.832Z,1.40
2022-09-07T21:33:59.924Z,1.42
2022-09-07T21:36:27.035Z,1.20
2022-09-07T21:38:54.316Z,1.10
2022-09-07T21:41:23.392Z,1.10
2022-09-07T21:43:57.174Z,1.40
2022-09-07T21:46:24.986Z,1.13
2022-09-07T21:48:51.727Z,1.33
2022-09-07T21:51:19.098Z,1.40
2022-09-07T21:53:50.353Z,1.15
2022-09-07T21:56:17.157Z,1.20
2022-09-07T21:58:44.252Z,1.73
2022-09-07T22:01:16.963Z,1.33
2022-09-07T22:03:45.917Z,1.45
2022-09-07T22:06:12.688Z,1.35
2022-09-07T22:08:40.863Z,1.30
2022-09-07T22:11:18.776Z,1.40
2022-09-07T22:13:45.942Z,1.30
2022-09-07T22:16:14.312Z,1.50
2022-09-07T22:18:46.076Z,1.35
2022-09-07T22:21:19.070Z,1.48
2022-09-07T22:23:48.283Z,1.30
2022-09-07T22:26:17.840Z,1.33
2022-09-07T22:28:44.531Z,1.50
2022-09-07T22:31:16.031Z,1.63
2022-09-07T22:33:43.665Z,1.52
2022-09-07T22:36:22.651Z,1.35
2022-09-07T22:38:52.339Z,1.40
2022-09-07T22:41:21.204Z,1.33
2022-09-07T22:43:51.000Z,1.65
2022-09-07T22:46:19.574Z,1.30
2022-09-07T22:48:46.421Z,1.30
2022-09-07T22:51:13.295Z,1.30
2022-09-07T22:53:42.413Z,1.63
2022-09-07T22:56:18.684Z,1.83
2022-09-07T22:58:50.601Z,1.63
2022-09-07T23:01:18.099Z,1.27
2022-09-07T23:03:45.676Z,1.40
2022-09-07T23:06:32.533Z,1.40
2022-09-07T23:09:01.932Z,1.60
2022-09-07T23:11:28.956Z,1.38
2022-09-07T23:13:58.639Z,1.35
2022-09-07T23:16:26.329Z,2.10
2022-09-07T23:18:53.720Z,1.70
2022-09-07T23:21:21.266Z,1.60
2022-09-07T23:23:53.178Z,1.55
2022-09-07T23:26:21.497Z,1.90
2022-09-07T23:28:56.754Z,1.70
2022-09-07T23:31:24.976Z,2.13
2022-09-07T23:33:51.653Z,1.88
2022-09-07T23:36:19.241Z,1.83
2022-09-07T23:38:46.348Z,1.80
2022-09-07T23:41:22.769Z,1.73
2022-09-07T23:43:49.391Z,1.60
2022-09-07T23:46:16.386Z,1.77
2022-09-07T23:48:45.259Z,1.73
2022-09-07T23:51:12.814Z,1.77
2022-09-07T23:53:39.769Z,2.15
2022-09-07T23:56:06.915Z,2.10
2022-09-07T23:58:33.843Z,1.80
